CYAW

Shearwater Airport

Shearwater, Canada
METAR CYAW 191300Z 29016G24KT 15SM FEW033 FEW250 M04/M08 A2975 RMK SC1CI1 DA-1979FT SLP078
Observed Flight Rules
Dec-19 @ 13:00 UTC (38 minutes ago) Visual Flight Rules
Wind Visibility Clouds
290° at 16 knots
 Gusting to 24 knots
15 miles
  • Few at 3,300' AGL
  • Few at 25,000' AGL
Temperatures Readings
Current -4°C / 25°F
Dewpoint -8°C / 18°F
Humidity 74%
Altimeter 29.75" Hg
Pressure 1007.8 hPa
Elevation 51
METAR CYAW 191300Z 29016G24KT 15SM FEW033 FEW250 M04/M08 A2975 RMK SC1CI1 DA-1979FT SLP078
Observed Flight Rules
Dec-19 @ 13:00 UTC
(38 minutes ago)
VFR
Wind Visibility
290° at 16 knots
 Gusting to 24 knots
15 miles
Clouds
  • Few at 3,300' AGL
  • Few at 25,000' AGL
Temperature Dewpoint
-4°C / 25°F -8°C / 18°F
Humidity Altimeter Pressure
74% 29.75" Hg 1007.8 hPa